Time;durP1;ratioP1;P1;durP2;ratioP2;P2;SDS_P1;SDS_P2;PMS_P1;PMS_P2;Temp;Humidity;BMP_temperature;BMP_pressure;BME280_temperature;BME280_humidity;BME280_pressure;Samples;Min_cycle;Max_cycle;Signal;HPM_P1;HPM_P2
2022/12/14 00:01:38;;;;;;;0.73;0.30;;;23.00;99.90;;;;;;4935787;29;20247;-72
2022/12/14 00:04:06;;;;;;;0.87;0.60;;;22.10;99.90;;;;;;4935260;29;20192;-72
2022/12/14 00:06:34;;;;;;;0.93;0.40;;;21.80;99.90;;;;;;4935460;29;20195;-72
2022/12/14 00:09:04;;;;;;;1.90;0.73;;;22.10;99.90;;;;;;4935677;29;20199;-73
2022/12/14 00:11:33;;;;;;;2.73;1.00;;;22.30;94.10;;;;;;4952986;29;20188;-73
2022/12/14 00:14:03;;;;;;;2.50;1.20;;;22.10;84.90;;;;;;4919387;29;20243;-73
2022/12/14 00:16:33;;;;;;;3.43;1.00;;;22.30;78.60;;;;;;4935412;29;20191;-73
2022/12/14 00:19:01;;;;;;;5.20;0.90;;;22.20;73.00;;;;;;4935062;29;20185;-73
2022/12/14 00:21:29;;;;;;;2.33;0.73;;;22.50;75.10;;;;;;4935159;29;20240;-73
2022/12/14 00:23:59;;;;;;;3.40;0.97;;;22.70;64.30;;;;;;4935022;29;20184;-72
2022/12/14 00:26:31;;;;;;;2.83;1.00;;;22.60;64.20;;;;;;4916122;29;20185;-72
2022/12/14 00:29:01;;;;;;;4.77;1.40;;;23.20;62.40;;;;;;4916534;29;20184;-72
2022/12/14 00:31:30;;;;;;;2.10;0.63;;;23.30;54.40;;;;;;4932966;29;20568;-73
2022/12/14 00:33:58;;;;;;;5.67;0.73;;;23.30;55.20;;;;;;4934878;29;20196;-72
2022/12/14 00:36:26;;;;;;;1.70;0.57;;;23.00;52.40;;;;;;4935143;29;20198;-73
2022/12/14 00:38:54;;;;;;;2.77;0.80;;;23.40;47.90;;;;;;4935183;29;20191;-72
2022/12/14 00:41:22;;;;;;;3.00;0.63;;;23.40;44.70;;;;;;4934378;29;20268;-71
2022/12/14 00:43:49;;;;;;;5.13;1.07;;;23.20;47.70;;;;;;4935475;29;20215;-72
2022/12/14 00:46:17;;;;;;;2.77;0.90;;;23.60;47.90;;;;;;4935070;29;20666;-74
2022/12/14 00:48:46;;;;;;;4.83;1.00;;;23.60;45.80;;;;;;4934792;29;20698;-71
2022/12/14 00:51:14;;;;;;;3.20;0.83;;;23.30;44.70;;;;;;4934317;29;20228;-70
2022/12/14 00:53:43;;;;;;;1.37;0.80;;;23.10;43.70;;;;;;4935125;29;20706;-71
2022/12/14 00:56:11;;;;;;;2.77;0.90;;;23.60;43.60;;;;;;4934440;29;20239;-71
2022/12/14 00:58:39;;;;;;;2.10;0.90;;;24.00;40.70;;;;;;4934298;29;20181;-72
2022/12/14 01:01:14;;;;;;;4.03;0.80;;;22.90;40.20;;;;;;4934151;29;20295;-71
2022/12/14 01:03:42;;;;;;;4.47;1.10;;;22.30;40.40;;;;;;4934145;29;20188;-71
2022/12/14 01:06:22;;;;;;;2.00;0.70;;;22.90;37.80;;;;;;4934503;29;20188;-71
2022/12/14 01:08:50;;;;;;;5.03;0.90;;;23.40;37.80;;;;;;4915679;29;20183;-70
2022/12/14 01:11:17;;;;;;;4.00;0.90;;;23.50;38.10;;;;;;4920493;29;20609;-70
2022/12/14 01:13:45;;;;;;;6.27;1.20;;;23.40;37.00;;;;;;4934306;29;20563;-71
2022/12/14 01:16:14;;;;;;;4.03;1.27;;;23.80;36.00;;;;;;4934694;29;20219;-71
2022/12/14 01:18:43;;;;;;;5.43;1.03;;;24.10;38.30;;;;;;4934331;29;20606;-71
2022/12/14 01:21:14;;;;;;;1.90;0.90;;;24.60;38.20;;;;;;4934825;29;20223;-71
2022/12/14 01:23:42;;;;;;;3.27;0.80;;;24.40;31.60;;;;;;4934500;29;20195;-71
2022/12/14 01:26:14;;;;;;;4.33;0.90;;;24.60;33.00;;;;;;4936168;29;20605;-72
2022/12/14 01:28:43;;;;;;;4.37;0.50;;;24.60;32.20;;;;;;4939802;29;20254;-72
2022/12/14 01:31:22;;;;;;;2.77;0.70;;;24.20;28.70;;;;;;4940910;29;20223;-72
2022/12/14 01:33:50;;;;;;;1.63;0.70;;;24.20;27.30;;;;;;4957081;28;20179;-71
2022/12/14 01:36:24;;;;;;;3.23;0.70;;;24.00;27.10;;;;;;4956617;29;20223;-72
2022/12/14 01:38:57;;;;;;;1.60;0.70;;;24.40;28.50;;;;;;4941043;29;20188;-73
2022/12/14 01:41:37;;;;;;;2.70;0.80;;;24.80;26.00;;;;;;4943681;29;20211;-72
2022/12/14 01:44:08;;;;;;;0.93;0.57;;;24.60;25.70;;;;;;4940236;29;20594;-72
2022/12/14 01:46:48;;;;;;;1.90;0.70;;;25.10;27.30;;;;;;4943154;29;20188;-73
2022/12/14 01:49:21;;;;;;;6.03;0.63;;;25.20;25.80;;;;;;4941849;29;20190;-73
2022/12/14 01:51:56;;;;;;;2.10;0.70;;;24.50;24.90;;;;;;4940794;29;20307;-71
2022/12/14 01:54:26;;;;;;;1.77;0.70;;;24.10;24.40;;;;;;4941789;29;20255;-72
2022/12/14 01:56:54;;;;;;;2.83;0.70;;;24.60;26.00;;;;;;4941877;29;20191;-73
2022/12/14 01:59:27;;;;;;;3.57;0.70;;;24.60;26.00;;;;;;4940687;29;20692;-72
2022/12/14 02:01:57;;;;;;;0.97;0.50;;;24.40;23.70;;;;;;4939876;29;20276;-73
2022/12/14 02:04:26;;;;;;;2.90;0.77;;;24.40;23.70;;;;;;4940557;29;20585;-72
2022/12/14 02:06:54;;;;;;;4.73;0.80;;;25.00;26.40;;;;;;4940326;29;20615;-72
2022/12/14 02:09:28;;;;;;;1.20;0.40;;;25.10;26.00;;;;;;4940326;29;20180;-73
2022/12/14 02:11:56;;;;;;;2.13;0.60;;;25.30;25.90;;;;;;4940547;29;20183;-72
2022/12/14 02:14:25;;;;;;;2.10;0.60;;;25.50;24.80;;;;;;4940620;29;20176;-72
2022/12/14 02:16:55;;;;;;;0.80;0.57;;;25.50;24.40;;;;;;4939472;29;20196;-73
2022/12/14 02:19:23;;;;;;;2.33;0.57;;;25.60;24.80;;;;;;4940578;29;20188;-72
2022/12/14 02:22:26;;;;;;;4.07;0.60;;;25.10;23.00;;;;;;4940446;29;20224;-72
2022/12/14 02:25:03;;;;;;;2.53;0.70;;;25.00;21.60;;;;;;4938777;29;20199;-72
2022/12/14 02:28:13;;;;;;;4.37;0.77;;;25.20;21.10;;;;;;4942870;29;20203;-72
2022/12/14 02:30:48;;;;;;;1.83;0.67;;;25.20;19.10;;;;;;4914740;29;20191;-72
2022/12/14 02:33:28;;;;;;;2.17;0.47;;;25.20;21.40;;;;;;4943710;29;20536;-72
2022/12/14 02:36:04;;;;;;;1.63;0.50;;;25.10;20.60;;;;;;4940048;29;20251;-72
2022/12/14 02:38:32;;;;;;;1.13;0.40;;;25.20;22.40;;;;;;4921650;29;20549;-72
2022/12/14 02:41:26;;;;;;;2.27;0.50;;;25.10;20.90;;;;;;4936994;29;20216;-73
2022/12/14 02:44:13;;;;;;;0.83;0.40;;;25.30;21.30;;;;;;4927349;29;20228;-72
2022/12/14 02:46:46;;;;;;;1.07;0.47;;;25.20;21.70;;;;;;4929125;29;20185;-72
2022/12/14 02:49:34;;;;;;;1.63;0.57;;;25.40;20.70;;;;;;4937384;29;20275;-72
2022/12/14 02:52:31;;;;;;;1.83;0.80;;;25.20;17.40;;;;;;4936609;29;20288;-75
2022/12/14 02:55:17;;;;;;;3.83;0.60;;;25.20;17.10;;;;;;4936902;29;20189;-73
2022/12/14 02:57:59;;;;;;;1.27;0.60;;;25.80;17.20;;;;;;4936767;29;20248;-71
2022/12/14 03:00:31;;;;;;;0.30;0.30;;;25.80;15.90;;;;;;4936201;29;20212;-73
2022/12/14 03:02:59;;;;;;;1.80;0.43;;;25.50;16.40;;;;;;4936862;29;20332;-71
2022/12/14 03:05:31;;;;;;;1.33;0.50;;;25.70;14.30;;;;;;4938253;29;20189;-71
2022/12/14 03:08:18;;;;;;;1.63;0.40;;;25.60;13.80;;;;;;4955808;29;20622;-71
2022/12/14 03:10:51;;;;;;;0.43;0.40;;;25.50;13.20;;;;;;4944484;29;20305;-72
2022/12/14 03:13:39;;;;;;;1.60;0.40;;;25.40;14.10;;;;;;4936448;29;20275;-72
2022/12/14 03:16:21;;;;;;;3.10;0.60;;;25.40;14.10;;;;;;4936103;29;20189;-72
2022/12/14 03:19:18;;;;;;;2.97;0.40;;;25.40;15.20;;;;;;4936625;29;20201;-72
2022/12/14 03:22:17;;;;;;;3.73;0.40;;;25.50;14.20;;;;;;4936306;29;20232;-72
2022/12/14 03:24:51;;;;;;;0.70;0.30;;;25.60;15.10;;;;;;4924871;29;20658;-72
2022/12/14 03:27:36;;;;;;;4.13;0.80;;;25.80;15.20;;;;;;4936131;29;20267;-73
2022/12/14 03:30:11;;;;;;;0.70;0.40;;;25.90;13.80;;;;;;4935862;29;20192;-72
2022/12/14 03:32:51;;;;;;;1.73;0.50;;;25.30;14.40;;;;;;4936275;29;20188;-72
2022/12/14 03:35:23;;;;;;;0.97;0.50;;;25.40;13.90;;;;;;4936310;29;20196;-72
2022/12/14 03:38:12;;;;;;;4.23;0.60;;;25.50;14.40;;;;;;4934382;29;20566;-73
2022/12/14 03:41:05;;;;;;;1.40;0.50;;;25.70;14.60;;;;;;4935759;29;20267;-73
2022/12/14 03:43:54;;;;;;;2.00;0.80;;;25.80;13.20;;;;;;4925849;29;20233;-73
2022/12/14 03:46:47;;;;;;;4.90;0.40;;;25.80;14.50;;;;;;4935912;29;20287;-73
2022/12/14 03:49:38;;;;;;;1.33;0.50;;;26.10;15.00;;;;;;4929256;29;20207;-73
2022/12/14 03:52:35;;;;;;;0.30;0.30;;;26.40;14.10;;;;;;4934963;29;20232;-72
2022/12/14 03:55:22;;;;;;;1.03;0.30;;;26.30;14.50;;;;;;4923625;29;20200;-72
2022/12/14 03:58:05;;;;;;;1.03;0.40;;;26.10;15.10;;;;;;4935804;29;20191;-72
2022/12/14 04:00:43;;;;;;;3.67;0.50;;;26.20;14.60;;;;;;4935764;29;20227;-72
2022/12/14 04:03:11;;;;;;;1.47;0.50;;;26.10;13.70;;;;;;4935933;29;20177;-72
2022/12/14 04:05:44;;;;;;;1.70;0.43;;;26.00;13.30;;;;;;4935433;29;20280;-71
2022/12/14 04:08:50;;;;;;;2.17;1.27;;;26.40;14.60;;;;;;4935572;29;20196;-71
2022/12/14 04:20:36;;;;;;;2.67;0.67;;;25.90;14.10;;;;;;4935487;29;20242;-72
2022/12/14 04:23:10;;;;;;;1.30;0.57;;;26.30;14.60;;;;;;4935321;29;20195;-72
2022/12/14 04:31:48;;;;;;;2.37;1.00;;;26.00;13.70;;;;;;4927294;29;20228;-73
2022/12/14 04:34:19;;;;;;;2.43;0.90;;;26.20;15.00;;;;;;4935256;29;20196;-73
2022/12/14 04:40:20;;;;;;;1.97;0.50;;;26.10;14.60;;;;;;4934503;29;20228;-73
2022/12/14 04:43:02;;;;;;;1.83;0.43;;;26.30;15.40;;;;;;4935812;29;20232;-73
2022/12/14 04:45:58;;;;;;;1.73;0.50;;;26.00;16.90;;;;;;4934718;29;20180;-71
2022/12/14 04:48:40;;;;;;;1.47;0.40;;;26.10;16.90;;;;;;4935175;29;20235;-73
2022/12/14 04:51:24;;;;;;;1.17;0.50;;;26.30;15.80;;;;;;4934663;29;20224;-71
2022/12/14 04:54:13;;;;;;;0.67;0.50;;;26.20;15.70;;;;;;4934551;29;20271;-73
2022/12/14 04:56:44;;;;;;;1.90;0.60;;;25.70;16.60;;;;;;4932213;29;20185;-73
2022/12/14 04:59:12;;;;;;;1.77;0.43;;;25.70;17.60;;;;;;4934370;29;20184;-73
2022/12/14 05:01:49;;;;;;;1.13;0.40;;;26.00;16.50;;;;;;4934298;29;20220;-73
2022/12/14 05:04:33;;;;;;;0.53;0.53;;;25.60;17.30;;;;;;4934288;29;20650;-73
2022/12/14 05:07:42;;;;;;;1.57;0.67;;;25.60;18.30;;;;;;4934631;29;20681;-72
2022/12/14 05:10:34;;;;;;;2.37;0.63;;;25.30;18.90;;;;;;4876243;29;20194;-70
2022/12/14 05:13:09;;;;;;;4.03;0.50;;;25.60;18.80;;;;;;4928116;29;20659;-69
2022/12/14 05:15:51;;;;;;;1.40;0.40;;;25.50;19.10;;;;;;4934392;29;20263;-68
2022/12/14 05:18:19;;;;;;;3.70;0.40;;;25.70;18.40;;;;;;4935900;29;20188;-71
2022/12/14 05:20:48;;;;;;;7.57;0.70;;;25.80;17.40;;;;;;4935770;29;20295;-68
2022/12/14 05:23:17;;;;;;;0.97;0.30;;;25.70;18.20;;;;;;4935859;29;20177;-73
2022/12/14 05:25:44;;;;;;;0.63;0.40;;;25.50;16.70;;;;;;4935966;29;20192;-68
2022/12/14 05:28:13;;;;;;;2.57;0.50;;;25.40;18.60;;;;;;4936086;29;20177;-69
2022/12/14 05:30:40;;;;;;;1.80;0.30;;;25.50;19.10;;;;;;4935797;29;20642;-67
2022/12/14 05:33:19;;;;;;;1.67;0.50;;;25.20;18.50;;;;;;4935833;29;20187;-67
2022/12/14 05:35:47;;;;;;;3.63;0.40;;;25.30;18.80;;;;;;4935843;29;20212;-71
2022/12/14 05:38:15;;;;;;;0.60;0.30;;;25.50;19.10;;;;;;4935838;29;20176;-71
2022/12/14 05:40:43;;;;;;;0.50;0.30;;;25.50;18.70;;;;;;4935499;29;20219;-73
2022/12/14 05:43:12;;;;;;;3.50;0.40;;;25.50;18.00;;;;;;4936151;29;20271;-66
2022/12/14 05:45:40;;;;;;;0.20;0.20;;;25.50;17.80;;;;;;4935750;29;20279;-71
2022/12/14 05:48:08;;;;;;;4.17;0.90;;;25.00;16.60;;;;;;4934417;29;20548;-67
2022/12/14 05:50:36;;;;;;;4.70;0.70;;;24.90;16.90;;;;;;4918423;29;20189;-67
2022/12/14 05:53:04;;;;;;;4.33;0.50;;;25.10;17.40;;;;;;4934023;29;20236;-69
2022/12/14 05:55:31;;;;;;;1.20;0.40;;;25.30;20.10;;;;;;4935811;29;20188;-67
2022/12/14 05:57:59;;;;;;;1.90;0.60;;;25.30;19.70;;;;;;4935701;29;20536;-67
2022/12/14 06:00:27;;;;;;;4.83;1.20;;;25.10;18.40;;;;;;4935227;29;20220;-68
2022/12/14 06:02:55;;;;;;;2.80;0.63;;;25.10;18.40;;;;;;4935837;29;20181;-67
2022/12/14 06:05:23;;;;;;;2.13;0.63;;;25.40;19.80;;;;;;4935570;29;20203;-67
2022/12/14 06:07:50;;;;;;;2.43;0.60;;;25.20;18.70;;;;;;4935649;29;20761;-73
2022/12/14 06:10:18;;;;;;;1.10;0.40;;;24.70;19.20;;;;;;4935470;29;20184;-68
2022/12/14 06:12:46;;;;;;;4.57;0.70;;;24.50;19.30;;;;;;4937165;29;20173;-71
2022/12/14 06:15:14;;;;;;;1.53;0.40;;;24.30;19.50;;;;;;4938985;29;20584;-68
2022/12/14 06:17:45;;;;;;;3.60;2.63;;;24.30;19.80;;;;;;4939302;29;20177;-67
2022/12/14 06:20:14;;;;;;;1.03;0.40;;;24.20;19.60;;;;;;4938808;29;20212;-73
2022/12/14 06:22:42;;;;;;;1.33;0.50;;;24.30;19.10;;;;;;4939024;29;20663;-72
2022/12/14 06:25:09;;;;;;;1.73;0.60;;;24.10;19.00;;;;;;4939040;29;20315;-72
2022/12/14 06:27:37;;;;;;;2.00;0.60;;;24.20;21.10;;;;;;4938857;29;20184;-67
2022/12/14 06:30:06;;;;;;;2.63;0.40;;;24.30;19.30;;;;;;4938766;29;20184;-68
2022/12/14 06:32:33;;;;;;;2.10;0.50;;;24.60;20.80;;;;;;4938812;29;20180;-66
2022/12/14 06:35:01;;;;;;;7.20;0.40;;;24.20;19.80;;;;;;4938828;29;20199;-73
2022/12/14 06:37:30;;;;;;;1.10;0.40;;;24.20;20.70;;;;;;4938974;29;20177;-70
2022/12/14 06:39:58;;;;;;;1.53;0.50;;;24.50;21.60;;;;;;4938418;29;20220;-66
2022/12/14 06:42:26;;;;;;;0.83;0.40;;;24.60;21.60;;;;;;4938515;29;20188;-66
2022/12/14 06:44:53;;;;;;;1.17;0.40;;;24.70;21.20;;;;;;4938720;29;20216;-73
2022/12/14 06:47:21;;;;;;;0.63;0.40;;;24.40;19.40;;;;;;4938597;29;20187;-66
2022/12/14 06:49:50;;;;;;;0.80;0.50;;;23.70;20.80;;;;;;4938314;29;20202;-67
2022/12/14 06:52:18;;;;;;;1.00;0.40;;;23.20;21.20;;;;;;4938096;29;20229;-68
2022/12/14 06:54:47;;;;;;;4.80;0.70;;;22.70;22.10;;;;;;4938893;29;20574;-66
2022/12/14 06:57:15;;;;;;;1.90;0.70;;;22.80;23.30;;;;;;4938312;29;20631;-66
2022/12/14 06:59:42;;;;;;;2.20;0.50;;;22.70;22.90;;;;;;4938029;29;20188;-66
2022/12/14 07:02:10;;;;;;;1.53;0.70;;;22.80;23.00;;;;;;4937955;29;20669;-68
2022/12/14 07:04:38;;;;;;;1.60;0.43;;;22.70;22.80;;;;;;4938205;29;20180;-66
2022/12/14 07:07:06;;;;;;;3.03;0.50;;;22.70;22.80;;;;;;4938098;29;20327;-67
2022/12/14 07:09:34;;;;;;;1.67;0.70;;;22.40;23.80;;;;;;4938188;29;20537;-67
2022/12/14 07:12:01;;;;;;;1.17;0.60;;;22.70;25.00;;;;;;4937806;29;20331;-67
2022/12/14 07:14:30;;;;;;;2.83;0.60;;;23.00;23.80;;;;;;4937837;29;20555;-67
2022/12/14 07:16:58;;;;;;;0.50;0.30;;;23.10;23.90;;;;;;4937726;29;20181;-67
2022/12/14 07:19:25;;;;;;;0.67;0.43;;;22.70;23.30;;;;;;4937990;29;20686;-67
2022/12/14 07:21:53;;;;;;;2.03;0.53;;;22.40;23.80;;;;;;4937773;29;20575;-65
2022/12/14 07:24:21;;;;;;;0.40;0.40;;;22.20;22.10;;;;;;4936835;29;20181;-70
2022/12/14 07:26:49;;;;;;;2.13;0.43;;;22.20;23.10;;;;;;4937548;29;20180;-66
2022/12/14 07:29:17;;;;;;;0.57;0.50;;;22.30;23.30;;;;;;4937709;29;20255;-66
2022/12/14 07:31:45;;;;;;;2.50;0.43;;;22.00;23.10;;;;;;4937756;29;20275;-69
2022/12/14 07:34:13;;;;;;;0.70;0.43;;;21.70;23.60;;;;;;4937460;29;20533;-66
2022/12/14 07:36:42;;;;;;;1.43;0.53;;;21.40;23.50;;;;;;4936454;29;20543;-74
2022/12/14 07:39:16;;;;;;;0.80;0.50;;;21.30;24.00;;;;;;4937485;29;20185;-66
2022/12/14 07:41:45;;;;;;;1.70;0.50;;;21.10;24.60;;;;;;4937337;29;20219;-71
2022/12/14 07:44:14;;;;;;;0.87;0.50;;;21.40;25.10;;;;;;4937303;29;20191;-69
2022/12/14 07:46:41;;;;;;;1.40;0.50;;;21.50;24.10;;;;;;4937655;29;20180;-73
2022/12/14 07:49:10;;;;;;;3.27;1.10;;;21.50;23.70;;;;;;4937114;29;20185;-66
2022/12/14 07:51:43;;;;;;;1.67;0.60;;;21.60;24.20;;;;;;4937207;29;20235;-67
2022/12/14 07:54:12;;;;;;;2.53;0.70;;;21.70;24.20;;;;;;4937035;29;20231;-68
2022/12/14 07:56:42;;;;;;;0.73;0.53;;;21.70;24.90;;;;;;4937253;29;20184;-67
2022/12/14 07:59:15;;;;;;;2.83;0.40;;;21.70;25.70;;;;;;4936857;29;20184;-67
2022/12/14 08:01:43;;;;;;;1.60;0.53;;;21.70;25.20;;;;;;4937139;29;20224;-69
2022/12/14 08:04:13;;;;;;;0.97;0.50;;;21.70;24.70;;;;;;4936789;29;20181;-70
2022/12/14 08:06:42;;;;;;;0.50;0.40;;;21.70;24.60;;;;;;4937047;29;20200;-74
2022/12/14 08:09:11;;;;;;;3.73;0.70;;;21.80;25.30;;;;;;4936932;29;20224;-68
2022/12/14 08:11:39;;;;;;;2.10;0.40;;;21.70;23.90;;;;;;4936848;29;20423;-67
2022/12/14 08:14:13;;;;;;;0.90;0.43;;;21.60;24.60;;;;;;4936931;29;20187;-67
2022/12/14 08:16:40;;;;;;;0.93;0.50;;;21.50;24.60;;;;;;4937055;29;20700;-71
2022/12/14 08:19:09;;;;;;;1.77;0.50;;;21.50;24.80;;;;;;4936549;29;20184;-73
2022/12/14 08:21:37;;;;;;;1.57;0.47;;;21.40;24.90;;;;;;4936699;29;20244;-68
2022/12/14 08:24:05;;;;;;;2.17;0.60;;;21.20;24.70;;;;;;4936577;29;20209;-72
2022/12/14 08:26:33;;;;;;;1.53;0.47;;;21.00;24.80;;;;;;4936817;29;20186;-73
2022/12/14 08:29:01;;;;;;;0.53;0.40;;;20.90;24.80;;;;;;4936659;29;20203;-68
2022/12/14 08:31:29;;;;;;;2.07;0.60;;;20.80;24.80;;;;;;4936934;29;20267;-74
2022/12/14 08:33:59;;;;;;;0.30;0.30;;;20.80;24.90;;;;;;4936399;29;20181;-69
2022/12/14 08:36:33;;;;;;;3.87;0.40;;;20.60;24.90;;;;;;4934471;29;20223;-72
2022/12/14 08:39:09;;;;;;;2.13;0.40;;;20.50;24.90;;;;;;4936309;29;20270;-70
2022/12/14 08:41:37;;;;;;;3.40;0.50;;;20.40;25.30;;;;;;4935066;29;20230;-67
2022/12/14 08:44:05;;;;;;;2.13;0.40;;;20.30;25.70;;;;;;4936495;29;20211;-67
2022/12/14 08:46:36;;;;;;;0.43;0.30;;;20.20;26.20;;;;;;4935287;29;20193;-67
2022/12/14 08:49:04;;;;;;;2.70;0.50;;;20.20;26.60;;;;;;4936200;29;20227;-72
2022/12/14 08:51:35;;;;;;;3.50;0.40;;;20.10;26.70;;;;;;4936179;29;20600;-72
2022/12/14 08:54:04;;;;;;;1.63;0.33;;;20.10;26.50;;;;;;4935979;29;20181;-68
2022/12/14 08:56:31;;;;;;;1.80;0.40;;;20.00;27.30;;;;;;4936426;29;20182;-67
2022/12/14 08:58:59;;;;;;;0.40;0.30;;;19.90;28.10;;;;;;4936107;29;20203;-72
2022/12/14 09:01:29;;;;;;;1.90;0.50;;;19.90;27.80;;;;;;4936101;29;20559;-72
2022/12/14 09:04:01;;;;;;;2.03;0.40;;;19.80;28.70;;;;;;4936178;29;20184;-72
2022/12/14 09:06:33;;;;;;;0.30;0.30;;;19.80;28.50;;;;;;4936099;29;20181;-72
2022/12/14 09:09:01;;;;;;;3.67;0.43;;;19.70;29.00;;;;;;4936337;29;20245;-71
2022/12/14 09:11:29;;;;;;;1.17;0.50;;;19.70;29.50;;;;;;4936042;29;20176;-69
2022/12/14 09:13:57;;;;;;;0.93;0.40;;;19.60;29.90;;;;;;4936035;29;20264;-68
2022/12/14 09:16:25;;;;;;;1.43;0.40;;;19.60;29.80;;;;;;4935958;29;20185;-70
2022/12/14 09:18:54;;;;;;;0.80;0.40;;;19.50;30.10;;;;;;4936054;29;20194;-70
2022/12/14 09:21:23;;;;;;;0.40;0.40;;;19.50;31.50;;;;;;4935552;29;20296;-69
2022/12/14 09:23:51;;;;;;;2.70;0.43;;;19.40;31.30;;;;;;4935681;29;20178;-68
2022/12/14 09:26:21;;;;;;;0.57;0.40;;;19.40;32.10;;;;;;4935778;29;20510;-74
2022/12/14 09:28:53;;;;;;;1.90;0.40;;;19.30;32.80;;;;;;4935928;29;20184;-68
2022/12/14 09:31:24;;;;;;;0.93;0.50;;;19.30;33.10;;;;;;4935746;29;20188;-69
2022/12/14 09:33:52;;;;;;;2.93;0.50;;;19.30;33.70;;;;;;4935614;29;20263;-67
2022/12/14 09:36:22;;;;;;;2.43;0.47;;;19.20;34.80;;;;;;4935826;29;20659;-72
2022/12/14 09:38:54;;;;;;;0.80;0.40;;;19.10;35.70;;;;;;4936114;29;20236;-67
2022/12/14 09:41:29;;;;;;;0.30;0.30;;;19.00;35.10;;;;;;4935728;29;20302;-70
2022/12/14 09:44:19;;;;;;;1.77;0.50;;;19.00;36.30;;;;;;4935606;29;20184;-67
2022/12/14 09:47:13;;;;;;;0.70;0.33;;;19.00;37.10;;;;;;4935947;29;20179;-68
2022/12/14 09:49:42;;;;;;;1.07;0.50;;;19.00;37.10;;;;;;4940282;29;20173;-69
2022/12/14 09:52:16;;;;;;;0.43;0.40;;;19.00;37.10;;;;;;4939274;29;20641;-69
2022/12/14 09:54:46;;;;;;;3.10;0.50;;;19.00;38.20;;;;;;4939433;29;20184;-70
2022/12/14 09:57:39;;;;;;;2.73;0.57;;;18.90;38.90;;;;;;4939418;29;20191;-75
2022/12/14 10:00:18;;;;;;;0.87;0.40;;;18.80;39.00;;;;;;4939233;29;20216;-71
2022/12/14 10:03:32;;;;;;;1.20;0.40;;;18.80;39.80;;;;;;4939370;29;20655;-67
2022/12/14 10:06:50;;;;;;;0.40;0.40;;;18.70;40.40;;;;;;4914069;29;20278;-69
2022/12/14 10:09:28;;;;;;;0.40;0.30;;;18.60;41.70;;;;;;4914827;29;20193;-68
2022/12/14 10:12:17;;;;;;;1.33;0.50;;;18.60;42.40;;;;;;4939220;29;20179;-69
2022/12/14 10:14:57;;;;;;;1.10;0.50;;;18.50;43.10;;;;;;4939248;29;20647;-67
2022/12/14 10:17:34;;;;;;;3.67;0.60;;;18.40;43.40;;;;;;4939176;29;20184;-71
2022/12/14 10:20:14;;;;;;;0.80;0.50;;;18.40;44.20;;;;;;4939164;29;20192;-67
2022/12/14 10:22:48;;;;;;;0.60;0.40;;;18.40;46.20;;;;;;4939266;29;20195;-71
2022/12/14 10:25:33;;;;;;;2.00;0.40;;;18.40;46.20;;;;;;4939239;29;20180;-74
2022/12/14 10:28:06;;;;;;;2.37;0.40;;;18.30;46.80;;;;;;4939139;29;20173;-72
2022/12/14 10:30:35;;;;;;;2.73;0.90;;;18.30;47.30;;;;;;4939014;29;20191;-68
2022/12/14 10:33:21;;;;;;;1.27;0.53;;;18.30;48.80;;;;;;4938922;29;20188;-67
2022/12/14 10:36:14;;;;;;;0.50;0.50;;;18.20;49.20;;;;;;4939133;29;20188;-69
2022/12/14 10:38:51;;;;;;;0.57;0.40;;;18.20;49.70;;;;;;4930967;29;20199;-70
2022/12/14 10:41:38;;;;;;;0.73;0.40;;;18.10;50.30;;;;;;4938584;29;20255;-68
2022/12/14 10:44:30;;;;;;;1.20;0.40;;;18.00;52.80;;;;;;4938664;29;20263;-67
2022/12/14 10:47:24;;;;;;;2.13;0.60;;;18.00;53.20;;;;;;4938555;29;20188;-65
2022/12/14 10:50:05;;;;;;;0.90;0.40;;;17.90;54.60;;;;;;4938781;29;20670;-67
2022/12/14 10:52:41;;;;;;;1.40;0.40;;;17.80;58.40;;;;;;4937998;29;20253;-74
2022/12/14 10:55:54;;;;;;;0.50;0.40;;;17.70;61.80;;;;;;4938632;29;20634;-70
2022/12/14 10:58:22;;;;;;;0.67;0.40;;;17.70;65.10;;;;;;4936768;29;20204;-69
2022/12/14 11:00:58;;;;;;;3.40;0.57;;;17.50;70.60;;;;;;4937908;29;20591;-67
2022/12/14 11:03:27;;;;;;;2.13;0.40;;;17.40;75.90;;;;;;4938324;29;20272;-69
2022/12/14 11:06:06;;;;;;;0.97;0.50;;;17.30;77.00;;;;;;4938468;29;20185;-67
2022/12/14 11:08:50;;;;;;;2.10;0.50;;;17.20;78.00;;;;;;4938146;29;20184;-71
2022/12/14 11:11:23;;;;;;;2.10;0.50;;;17.10;85.70;;;;;;4938348;29;20187;-69
2022/12/14 11:14:05;;;;;;;4.23;0.80;;;17.00;90.30;;;;;;4936974;29;20187;-73
2022/12/14 11:16:38;;;;;;;1.53;0.83;;;16.90;91.50;;;;;;4938122;29;20537;-68
2022/12/14 11:19:21;;;;;;;1.70;0.70;;;16.80;95.40;;;;;;4938038;29;20227;-69
2022/12/14 11:22:03;;;;;;;0.60;0.60;;;16.60;97.00;;;;;;4938454;29;20208;-73
2022/12/14 11:24:31;;;;;;;1.60;0.53;;;16.60;99.80;;;;;;4937929;29;20255;-69
2022/12/14 11:27:02;;;;;;;2.77;0.70;;;16.60;99.90;;;;;;4937955;29;20666;-67
2022/12/14 11:29:34;;;;;;;1.43;0.80;;;16.50;99.90;;;;;;4938043;29;20198;-68
2022/12/14 11:32:03;;;;;;;2.87;1.40;;;16.40;99.90;;;;;;4937831;29;20184;-72
2022/12/14 11:34:37;;;;;;;2.80;1.10;;;16.40;99.90;;;;;;4938003;29;20267;-71
2022/12/14 11:37:31;;;;;;;1.67;1.03;;;16.40;99.90;;;;;;4937686;29;20187;-70
2022/12/14 11:40:02;;;;;;;1.30;0.80;;;16.40;99.90;;;;;;4937597;29;20187;-68
2022/12/14 11:42:31;;;;;;;1.47;0.77;;;16.40;99.90;;;;;;4938034;29;20183;-70
2022/12/14 11:45:24;;;;;;;1.10;0.80;;;16.30;99.90;;;;;;4937408;29;20184;-70
2022/12/14 11:48:28;;;;;;;1.50;1.00;;;16.30;99.90;;;;;;4931557;29;20206;-74
2022/12/14 11:51:12;;;;;;;1.90;0.80;;;16.30;99.90;;;;;;4877301;29;20183;-70
2022/12/14 11:53:41;;;;;;;2.13;0.73;;;16.30;99.90;;;;;;4932860;29;20204;-69
2022/12/14 11:56:15;;;;;;;2.53;0.60;;;16.30;99.90;;;;;;4937249;29;20177;-69
2022/12/14 11:58:52;;;;;;;0.50;0.50;;;16.50;99.90;;;;;;4937618;29;20200;-70
2022/12/14 12:01:25;;;;;;;2.30;0.70;;;16.60;99.90;;;;;;4936921;29;20266;-69
2022/12/14 12:03:57;;;;;;;1.10;0.50;;;16.70;99.90;;;;;;4936895;29;20184;-68
2022/12/14 12:06:28;;;;;;;2.07;0.50;;;16.90;99.90;;;;;;4937209;29;20185;-69
2022/12/14 12:09:01;;;;;;;1.07;0.50;;;17.10;99.90;;;;;;4923622;29;20208;-70
2022/12/14 12:11:34;;;;;;;1.47;0.83;;;17.00;99.90;;;;;;4942899;29;20176;-70
2022/12/14 12:14:32;;;;;;;0.60;0.50;;;17.00;99.90;;;;;;4940537;29;20177;-70
2022/12/14 12:17:00;;;;;;;2.17;0.90;;;17.00;99.90;;;;;;4936997;29;20176;-70
2022/12/14 12:19:34;;;;;;;0.87;0.57;;;17.00;99.90;;;;;;4936945;29;20196;-70
2022/12/14 12:22:04;;;;;;;2.40;0.40;;;17.00;99.90;;;;;;4936687;29;20223;-69
2022/12/14 12:24:47;;;;;;;2.50;0.50;;;17.00;99.90;;;;;;4936778;29;20564;-70
2022/12/14 12:27:16;;;;;;;0.70;0.50;;;17.00;99.90;;;;;;4936482;29;20530;-70
2022/12/14 12:30:07;;;;;;;0.63;0.50;;;17.00;99.90;;;;;;4936864;29;20181;-70
2022/12/14 12:32:49;;;;;;;1.43;0.50;;;17.00;99.90;;;;;;4936486;29;20681;-70
2022/12/14 12:35:19;;;;;;;1.30;0.60;;;17.00;99.90;;;;;;4937015;29;20271;-70
2022/12/14 12:37:47;;;;;;;1.00;0.60;;;16.90;99.90;;;;;;4936671;29;20204;-70
2022/12/14 12:40:22;;;;;;;3.13;0.70;;;16.80;99.90;;;;;;4936642;29;20209;-70
2022/12/14 12:42:58;;;;;;;1.37;0.40;;;16.70;99.90;;;;;;4936306;29;20263;-70
2022/12/14 12:45:35;;;;;;;4.33;0.70;;;16.70;99.90;;;;;;4934744;29;20191;-70
2022/12/14 12:48:17;;;;;;;2.40;0.60;;;16.70;99.90;;;;;;4937055;29;20191;-72
2022/12/14 12:50:50;;;;;;;1.80;0.60;;;16.70;99.90;;;;;;4919269;29;20177;-71
2022/12/14 12:53:31;;;;;;;3.60;0.60;;;16.80;99.90;;;;;;4935492;29;20232;-71
2022/12/14 12:56:10;;;;;;;0.63;0.53;;;16.70;99.90;;;;;;4936924;29;20575;-71
2022/12/14 12:58:40;;;;;;;2.07;0.60;;;16.70;99.90;;;;;;4936442;29;20693;-71
2022/12/14 13:01:23;;;;;;;2.73;0.70;;;16.70;99.90;;;;;;4934755;29;20225;-70
2022/12/14 13:03:55;;;;;;;1.17;0.80;;;16.70;99.90;;;;;;4936354;29;20176;-70
2022/12/14 13:06:39;;;;;;;3.80;0.70;;;16.70;99.90;;;;;;4936306;29;20180;-70
2022/12/14 13:09:37;;;;;;;1.77;0.57;;;16.60;99.90;;;;;;4935165;29;20184;-70
2022/12/14 13:12:22;;;;;;;0.87;0.50;;;16.50;99.90;;;;;;4928180;29;20336;-71
2022/12/14 13:14:52;;;;;;;1.97;0.80;;;16.50;99.90;;;;;;4935936;29;20191;-70
2022/12/14 13:17:29;;;;;;;1.30;0.70;;;16.50;99.90;;;;;;4918928;29;20573;-70
2022/12/14 13:19:59;;;;;;;1.17;0.60;;;16.40;99.90;;;;;;4935825;29;20243;-70
2022/12/14 13:22:31;;;;;;;0.73;0.47;;;16.40;99.90;;;;;;4935645;29;20198;-70
2022/12/14 13:25:22;;;;;;;1.33;0.50;;;16.30;99.90;;;;;;4935918;29;20243;-70
2022/12/14 13:28:11;;;;;;;1.53;0.60;;;16.20;99.90;;;;;;4935798;29;20632;-70
2022/12/14 13:31:01;;;;;;;1.87;0.87;;;16.10;99.90;;;;;;4936117;29;20678;-71
2022/12/14 13:34:02;;;;;;;3.07;0.60;;;16.00;99.90;;;;;;4935712;29;20185;-70
2022/12/14 13:36:48;;;;;;;0.50;0.50;;;16.00;99.90;;;;;;4935982;29;20171;-71
2022/12/14 13:39:57;;;;;;;0.73;0.60;;;15.90;99.90;;;;;;4936034;29;20634;-70
2022/12/14 13:42:28;;;;;;;1.77;0.50;;;15.90;99.90;;;;;;4913574;29;20282;-70
2022/12/14 13:45:16;;;;;;;2.30;0.70;;;15.80;99.90;;;;;;4936000;29;20180;-69
2022/12/14 13:47:54;;;;;;;2.93;0.70;;;15.90;99.90;;;;;;4935553;29;20192;-70